Time;durP1;ratioP1;P1;durP2;ratioP2;P2;SDS_P1;SDS_P2;PMS_P1;PMS_P2;Temp;Humidity;BMP_temperature;BMP_pressure;BME280_temperature;BME280_humidity;BME280_pressure;Samples;Min_cycle;Max_cycle;Signal;HPM_P1;HPM_P2
2023/10/08 00:01:06;;;;;;;4.35;2.80;;;19.30;59.20;;;;;;5055366;28;20212;-64
2023/10/08 00:03:33;;;;;;;4.50;2.63;;;19.30;59.20;;;;;;5054656;28;20571;-64
2023/10/08 00:06:07;;;;;;;5.82;2.83;;;19.30;59.10;;;;;;5054893;28;20286;-64
2023/10/08 00:08:35;;;;;;;5.38;2.90;;;19.30;59.10;;;;;;5055006;28;20192;-64
2023/10/08 00:11:07;;;;;;;5.43;3.05;;;19.30;59.10;;;;;;5054759;28;20265;-61
2023/10/08 00:13:39;;;;;;;3.95;2.78;;;19.30;59.10;;;;;;5054850;28;20184;-65
2023/10/08 00:16:10;;;;;;;4.50;2.80;;;19.30;59.10;;;;;;5054684;28;20231;-64
2023/10/08 00:19:01;;;;;;;5.00;2.58;;;19.30;59.10;;;;;;5054288;28;20642;-64
2023/10/08 00:21:33;;;;;;;5.20;3.03;;;19.30;59.00;;;;;;5054740;28;20192;-65
2023/10/08 00:24:06;;;;;;;3.63;2.65;;;19.30;59.10;;;;;;5054244;28;20965;-64
2023/10/08 00:26:39;;;;;;;3.83;2.72;;;19.30;59.00;;;;;;5058055;28;20227;-65
2023/10/08 00:29:15;;;;;;;5.70;2.83;;;19.30;59.00;;;;;;5074255;28;20723;-64
2023/10/08 00:31:45;;;;;;;4.30;3.38;;;19.30;59.00;;;;;;5074556;28;20640;-64
2023/10/08 00:34:14;;;;;;;5.00;3.00;;;19.30;59.00;;;;;;5073920;28;20268;-64
2023/10/08 00:36:42;;;;;;;3.92;3.00;;;19.30;59.00;;;;;;5074134;28;20471;-64
2023/10/08 00:39:14;;;;;;;5.47;3.00;;;19.30;59.00;;;;;;5074428;28;20210;-62
2023/10/08 00:41:44;;;;;;;3.35;2.65;;;19.30;59.00;;;;;;5074241;28;20198;-64
2023/10/08 00:44:22;;;;;;;4.07;2.95;;;19.30;59.00;;;;;;5074279;28;20265;-64
2023/10/08 00:46:51;;;;;;;5.53;2.95;;;19.30;59.00;;;;;;5074046;28;20187;-64
2023/10/08 00:49:35;;;;;;;5.82;3.35;;;19.30;59.00;;;;;;5073762;28;20259;-64
2023/10/08 00:52:26;;;;;;;3.83;2.92;;;19.20;58.80;;;;;;5073949;28;20190;-62
2023/10/08 00:55:06;;;;;;;4.47;2.72;;;19.30;58.90;;;;;;5073728;28;20311;-64
2023/10/08 00:57:36;;;;;;;6.07;3.42;;;19.30;58.90;;;;;;5073798;28;20248;-64
2023/10/08 01:00:15;;;;;;;4.60;2.75;;;19.30;58.90;;;;;;5074141;28;20219;-64
2023/10/08 01:02:49;;;;;;;5.60;3.00;;;19.30;58.90;;;;;;5073937;28;20202;-64
2023/10/08 01:05:25;;;;;;;4.63;2.80;;;19.20;58.80;;;;;;5073728;28;20218;-63
2023/10/08 01:07:56;;;;;;;4.30;2.78;;;19.30;58.90;;;;;;5073950;28;20183;-64
2023/10/08 01:10:25;;;;;;;5.22;2.95;;;19.20;58.70;;;;;;5073682;28;20253;-64
2023/10/08 01:13:04;;;;;;;5.05;2.97;;;19.30;58.80;;;;;;5073539;28;20198;-65
2023/10/08 01:15:35;;;;;;;3.13;2.45;;;19.20;58.70;;;;;;5073367;28;20718;-64
2023/10/08 01:18:05;;;;;;;6.63;2.70;;;19.20;58.70;;;;;;5073490;28;20187;-63
2023/10/08 01:20:36;;;;;;;5.75;2.95;;;19.20;58.70;;;;;;5073779;28;20248;-65
2023/10/08 01:23:12;;;;;;;4.43;2.72;;;19.20;58.70;;;;;;5073261;28;20278;-64
2023/10/08 01:25:41;;;;;;;3.22;2.55;;;19.20;58.70;;;;;;5073150;28;20225;-64
2023/10/08 01:28:17;;;;;;;5.05;2.72;;;19.20;58.70;;;;;;5073026;28;20234;-63
2023/10/08 01:30:46;;;;;;;5.22;3.10;;;19.20;58.70;;;;;;5073589;28;20222;-63
2023/10/08 01:33:25;;;;;;;;;;;;;;;;;;;;;
2023/10/08 01:35:52;;;;;;;4.20;2.90;;;19.20;58.70;;;;;;5004847;28;20688;-64
2023/10/08 01:41:19;;;;;;;3.28;2.63;;;19.20;58.70;;;;;;5064001;28;20344;-64
2023/10/08 01:43:50;;;;;;;4.07;2.67;;;19.20;58.70;;;;;;5072860;28;20191;-63
2023/10/08 01:46:18;;;;;;;3.35;2.45;;;19.20;58.70;;;;;;5073088;28;20616;-63
2023/10/08 01:49:04;;;;;;;4.85;2.83;;;19.20;58.70;;;;;;5072592;28;20710;-62
2023/10/08 01:51:39;;;;;;;6.35;3.20;;;19.20;58.70;;;;;;5072047;28;20198;-65
2023/10/08 01:54:10;;;;;;;4.30;2.80;;;19.20;58.60;;;;;;5072625;28;20190;-62
2023/10/08 01:56:41;;;;;;;4.78;3.05;;;19.20;58.60;;;;;;5072406;28;20700;-64
2023/10/08 01:59:09;;;;;;;4.53;2.97;;;19.20;58.60;;;;;;5072813;28;20190;-65
2023/10/08 02:01:38;;;;;;;4.22;2.70;;;19.20;58.70;;;;;;5072853;28;20236;-64
2023/10/08 02:04:07;;;;;;;4.10;2.70;;;19.20;58.60;;;;;;5072352;28;20226;-63
2023/10/08 02:06:35;;;;;;;7.00;2.90;;;19.20;58.60;;;;;;5071911;28;20191;-63
2023/10/08 02:09:07;;;;;;;5.57;3.00;;;19.20;58.60;;;;;;5072740;28;20252;-63
2023/10/08 02:11:44;;;;;;;6.05;2.53;;;19.20;58.60;;;;;;5072099;28;20240;-65
2023/10/08 02:14:15;;;;;;;3.60;2.40;;;19.20;58.60;;;;;;5072603;28;20218;-63
2023/10/08 02:19:26;;;;;;;4.53;2.90;;;19.20;58.60;;;;;;5065244;28;20257;-62
2023/10/08 02:21:54;;;;;;;4.53;2.90;;;19.20;58.60;;;;;;5072508;28;20182;-64
2023/10/08 02:24:24;;;;;;;2.78;2.13;;;19.20;58.60;;;;;;5071913;28;20223;-65
2023/10/08 02:26:54;;;;;;;3.72;2.75;;;19.20;58.60;;;;;;5072023;28;20277;-65
2023/10/08 02:29:22;;;;;;;4.32;2.63;;;19.20;58.60;;;;;;5072101;28;20226;-64
2023/10/08 02:31:50;;;;;;;4.32;2.88;;;19.10;58.50;;;;;;5071912;28;20256;-62
2023/10/08 02:34:19;;;;;;;3.90;2.65;;;19.20;58.60;;;;;;5072349;28;20218;-65
2023/10/08 02:36:47;;;;;;;4.20;2.55;;;19.10;58.50;;;;;;5072036;28;20210;-64
2023/10/08 02:39:17;;;;;;;4.82;2.88;;;19.20;58.60;;;;;;5072126;28;20246;-64
2023/10/08 02:41:56;;;;;;;;;;;;;;;;;;;;;
2023/10/08 02:44:25;;;;;;;4.00;2.60;;;19.20;58.60;;;;;;5072085;28;20225;-64
2023/10/08 02:46:54;;;;;;;4.15;2.50;;;19.20;58.60;;;;;;5072111;28;20187;-64
2023/10/08 02:49:23;;;;;;;3.40;2.72;;;19.20;58.60;;;;;;5071965;28;20701;-64
2023/10/08 02:51:53;;;;;;;4.57;3.00;;;19.20;58.60;;;;;;5072282;28;20191;-65
2023/10/08 02:55:13;;;;;;;;;;;;;;;;;;;;;
2023/10/08 02:58:03;;;;;;;4.55;2.80;;;19.20;58.50;;;;;;5023747;28;20708;-65
2023/10/08 03:00:34;;;;;;;4.28;2.95;;;19.10;58.50;;;;;;5071222;28;20219;-64
2023/10/08 03:03:07;;;;;;;5.55;2.80;;;19.10;58.50;;;;;;5071989;28;20187;-64
2023/10/08 03:05:43;;;;;;;4.63;2.70;;;19.10;58.50;;;;;;5072169;28;20215;-64
2023/10/08 03:08:11;;;;;;;4.70;2.75;;;19.10;58.50;;;;;;5072133;28;20278;-65
2023/10/08 03:10:41;;;;;;;4.97;2.58;;;19.10;58.50;;;;;;5071878;28;20297;-64
2023/10/08 03:13:10;;;;;;;4.50;2.47;;;19.10;58.50;;;;;;5072033;28;20274;-64
2023/10/08 03:15:46;;;;;;;3.88;2.70;;;19.10;58.50;;;;;;5072185;28;20218;-65
2023/10/08 03:18:24;;;;;;;4.13;2.83;;;19.10;58.50;;;;;;5075449;28;20756;-63
2023/10/08 03:20:52;;;;;;;3.30;2.53;;;19.10;58.50;;;;;;5040938;28;20236;-65
2023/10/08 03:23:33;;;;;;;4.70;2.42;;;19.10;58.50;;;;;;5075812;28;20194;-64
2023/10/08 03:26:09;;;;;;;4.00;2.67;;;19.10;58.50;;;;;;5075936;28;20726;-64
2023/10/08 03:28:37;;;;;;;5.53;2.60;;;19.10;58.50;;;;;;5075821;28;20182;-64
2023/10/08 03:31:12;;;;;;;6.20;2.95;;;19.10;58.50;;;;;;5075420;28;20268;-64
2023/10/08 03:33:40;;;;;;;5.25;3.00;;;19.10;58.50;;;;;;5075620;28;20191;-65
2023/10/08 03:36:14;;;;;;;4.63;2.70;;;19.10;58.50;;;;;;5075674;28;20215;-63
2023/10/08 03:38:51;;;;;;;4.88;2.67;;;19.10;58.50;;;;;;5075417;28;20244;-65
2023/10/08 03:41:27;;;;;;;5.07;2.80;;;19.20;58.50;;;;;;5075223;28;20225;-64
2023/10/08 03:44:01;;;;;;;4.10;2.92;;;19.10;58.50;;;;;;5075528;28;20205;-64
2023/10/08 03:46:30;;;;;;;3.42;2.55;;;19.10;58.40;;;;;;5073324;28;20610;-64
2023/10/08 03:49:04;;;;;;;4.95;3.05;;;19.10;58.50;;;;;;5075209;28;20203;-64
2023/10/08 03:51:38;;;;;;;4.93;2.90;;;19.10;58.50;;;;;;5074913;28;20195;-64
2023/10/08 03:54:24;;;;;;;4.82;2.88;;;19.10;58.40;;;;;;5074970;28;20194;-65
2023/10/08 03:56:51;;;;;;;4.03;2.55;;;19.10;58.40;;;;;;5074856;28;20219;-64
2023/10/08 03:59:30;;;;;;;5.40;3.05;;;19.10;58.40;;;;;;5075143;28;20222;-65
2023/10/08 04:02:01;;;;;;;4.68;3.25;;;19.10;58.40;;;;;;5074912;28;20194;-64
2023/10/08 04:04:48;;;;;;;5.47;3.15;;;19.10;58.40;;;;;;5074746;28;20218;-64
2023/10/08 04:07:28;;;;;;;4.68;2.67;;;19.10;58.40;;;;;;5075044;28;20273;-64
2023/10/08 04:10:20;;;;;;;5.32;2.65;;;19.10;58.40;;;;;;5074515;28;20271;-64
2023/10/08 04:16:21;;;;;;;3.90;2.97;;;19.10;58.30;;;;;;4915643;29;20232;-64
2023/10/08 04:18:55;;;;;;;3.60;2.63;;;19.10;58.30;;;;;;4971351;28;20231;-62
2023/10/08 04:21:27;;;;;;;3.63;2.55;;;19.10;58.30;;;;;;4993160;28;20230;-64
2023/10/08 04:23:57;;;;;;;4.45;2.80;;;19.10;58.40;;;;;;4990558;28;20190;-64
2023/10/08 04:26:25;;;;;;;4.97;2.58;;;19.10;58.40;;;;;;4982272;28;20230;-64
2023/10/08 04:28:57;;;;;;;3.88;2.45;;;19.10;58.30;;;;;;4984362;28;20202;-64
2023/10/08 04:31:28;;;;;;;3.45;2.53;;;19.10;58.30;;;;;;4973152;28;20218;-64
2023/10/08 04:34:00;;;;;;;3.70;2.63;;;19.10;58.30;;;;;;4987006;28;20630;-64
2023/10/08 04:36:28;;;;;;;4.28;2.42;;;19.10;58.30;;;;;;4992857;28;20222;-64
2023/10/08 04:39:03;;;;;;;3.40;2.70;;;19.10;58.30;;;;;;4992437;28;20213;-63
2023/10/08 04:41:30;;;;;;;5.88;2.92;;;19.10;58.30;;;;;;4992637;28;20225;-65
2023/10/08 04:44:01;;;;;;;4.57;2.83;;;19.10;58.30;;;;;;4992416;28;20292;-64
2023/10/08 04:46:46;;;;;;;4.80;2.90;;;19.10;58.20;;;;;;4992259;28;20276;-63
2023/10/08 04:49:27;;;;;;;3.75;2.80;;;19.00;58.20;;;;;;4992293;28;20703;-64
2023/10/08 04:51:57;;;;;;;6.00;2.65;;;19.10;58.30;;;;;;4992368;28;20612;-64
2023/10/08 04:54:29;;;;;;;3.80;2.60;;;19.10;58.30;;;;;;5073804;28;20211;-64
2023/10/08 04:56:59;;;;;;;4.72;3.15;;;19.10;58.20;;;;;;5073784;28;20219;-64
2023/10/08 04:59:32;;;;;;;3.97;2.65;;;19.10;58.30;;;;;;5073916;28;20230;-65
2023/10/08 05:05:06;;;;;;;3.80;2.65;;;19.00;58.20;;;;;;5073758;28;20288;-63
2023/10/08 05:13:17;;;;;;;3.25;2.58;;;19.00;58.20;;;;;;5057817;28;20207;-64
2023/10/08 05:16:02;;;;;;;5.13;2.70;;;19.00;58.20;;;;;;5073250;28;20268;-64
2023/10/08 05:19:05;;;;;;;4.03;2.67;;;19.00;58.20;;;;;;5073553;28;20305;-61
2023/10/08 05:21:34;;;;;;;4.35;2.67;;;19.00;58.20;;;;;;5073382;28;20226;-64
2023/10/08 05:24:12;;;;;;;5.80;2.80;;;19.00;58.10;;;;;;5072917;28;20193;-65
2023/10/08 05:26:45;;;;;;;4.68;2.78;;;19.00;58.20;;;;;;5073019;28;20676;-63
2023/10/08 05:29:52;;;;;;;3.55;2.45;;;19.00;58.20;;;;;;5073164;28;20198;-64
2023/10/08 05:40:54;;;;;;;4.93;2.67;;;19.00;58.10;;;;;;5048940;28;20227;-65
2023/10/08 05:43:33;;;;;;;3.85;2.55;;;19.00;58.00;;;;;;5073060;28;20191;-64
2023/10/08 05:48:51;;;;;;;6.18;3.13;;;19.00;58.10;;;;;;5072219;28;20226;-63
2023/10/08 05:51:33;;;;;;;3.13;2.28;;;19.00;58.10;;;;;;5072861;28;20229;-63
2023/10/08 05:54:24;;;;;;;4.70;2.60;;;19.00;58.10;;;;;;5073006;28;20189;-65
2023/10/08 05:57:06;;;;;;;2.92;2.28;;;19.00;58.10;;;;;;5072321;28;20248;-64
2023/10/08 05:59:38;;;;;;;4.07;2.65;;;19.00;58.00;;;;;;5072707;28;20206;-64
2023/10/08 06:02:27;;;;;;;4.55;2.95;;;19.00;58.10;;;;;;5072883;28;20218;-64
2023/10/08 06:05:09;;;;;;;3.95;2.58;;;19.00;58.00;;;;;;5072310;28;20218;-63
2023/10/08 06:07:48;;;;;;;3.88;2.60;;;19.00;58.10;;;;;;5072302;28;20195;-61
2023/10/08 06:10:41;;;;;;;4.15;2.72;;;19.00;58.00;;;;;;5072823;28;20271;-65
2023/10/08 06:13:13;;;;;;;4.22;2.47;;;19.00;58.00;;;;;;5072441;28;20587;-63
2023/10/08 06:15:47;;;;;;;4.70;2.83;;;19.00;58.10;;;;;;5072302;28;20218;-65
2023/10/08 06:18:15;;;;;;;5.85;2.67;;;19.00;58.00;;;;;;5072363;28;20695;-64
2023/10/08 06:20:43;;;;;;;5.05;3.10;;;19.00;58.00;;;;;;5072780;28;20215;-64
2023/10/08 06:23:13;;;;;;;4.65;2.80;;;19.00;58.00;;;;;;5072159;28;20197;-64
2023/10/08 06:25:54;;;;;;;4.40;2.70;;;19.00;58.00;;;;;;5072682;28;20215;-64
2023/10/08 06:28:21;;;;;;;4.25;2.63;;;18.90;57.90;;;;;;5071924;28;20709;-64
2023/10/08 06:30:59;;;;;;;;;;;;;;;;;;;;;
2023/10/08 06:33:30;;;;;;;4.13;2.97;;;18.90;57.90;;;;;;5004283;28;20209;-64
2023/10/08 06:36:02;;;;;;;5.90;2.67;;;18.90;57.90;;;;;;5072001;28;20216;-63
2023/10/08 06:38:31;;;;;;;5.32;2.95;;;18.90;57.90;;;;;;5072349;28;20271;-65
2023/10/08 06:41:08;;;;;;;4.30;2.85;;;19.00;58.00;;;;;;5072483;28;20268;-65
2023/10/08 06:43:46;;;;;;;4.25;2.80;;;18.90;57.90;;;;;;5072002;28;20729;-65
2023/10/08 06:48:59;;;;;;;3.97;2.60;;;18.90;57.90;;;;;;5058990;28;20252;-63
2023/10/08 06:51:26;;;;;;;3.90;2.47;;;18.90;57.90;;;;;;5071906;28;20229;-64
2023/10/08 06:53:54;;;;;;;4.72;2.92;;;19.00;58.00;;;;;;5072178;28;20190;-64
2023/10/08 06:56:24;;;;;;;6.47;3.08;;;19.00;58.00;;;;;;5072140;28;20218;-65
2023/10/08 06:58:53;;;;;;;4.60;2.80;;;18.90;57.90;;;;;;5071923;28;20214;-64
2023/10/08 07:01:21;;;;;;;4.28;2.60;;;19.00;58.00;;;;;;5072219;28;20215;-65
2023/10/08 07:03:50;;;;;;;4.20;2.83;;;19.00;58.00;;;;;;5072155;28;20197;-64
2023/10/08 07:06:25;;;;;;;3.53;2.65;;;18.90;57.90;;;;;;5072107;28;20218;-65
2023/10/08 07:08:55;;;;;;;5.90;2.90;;;18.90;57.90;;;;;;5071829;28;20293;-64
2023/10/08 07:11:26;;;;;;;3.25;2.50;;;18.90;57.90;;;;;;5071742;28;20300;-63
2023/10/08 07:13:54;;;;;;;3.80;2.58;;;18.90;57.90;;;;;;5071799;28;20278;-65
2023/10/08 07:16:23;;;;;;;3.97;2.83;;;18.90;57.90;;;;;;5072253;28;20219;-64
2023/10/08 07:18:52;;;;;;;4.10;3.10;;;18.90;58.50;;;;;;5072020;28;20222;-63
2023/10/08 07:21:28;;;;;;;3.80;2.55;;;18.90;57.90;;;;;;5071692;28;20738;-64
2023/10/08 07:23:57;;;;;;;4.38;2.50;;;18.90;57.90;;;;;;5071642;28;20281;-65
2023/10/08 07:26:35;;;;;;;3.95;2.60;;;18.90;57.90;;;;;;5071894;28;20305;-64
2023/10/08 07:29:07;;;;;;;4.88;2.72;;;18.90;57.90;;;;;;5071815;28;20214;-64
2023/10/08 07:37:38;;;;;;;7.30;2.85;;;18.90;57.90;;;;;;4990046;28;20313;-64
2023/10/08 07:40:09;;;;;;;5.15;3.00;;;18.90;57.90;;;;;;4990243;28;20662;-64
2023/10/08 07:42:38;;;;;;;6.47;3.00;;;18.90;57.90;;;;;;4989833;28;20485;-64
2023/10/08 07:45:17;;;;;;;4.45;2.90;;;18.90;57.90;;;;;;4989927;28;20230;-65
2023/10/08 07:47:45;;;;;;;4.68;2.60;;;18.90;57.90;;;;;;4989965;28;20228;-64
2023/10/08 07:50:13;;;;;;;5.28;2.88;;;18.90;57.90;;;;;;4989775;28;20280;-64
2023/10/08 07:52:44;;;;;;;4.63;2.63;;;18.90;57.90;;;;;;4990016;28;20190;-64
2023/10/08 07:55:17;;;;;;;4.15;2.80;;;18.90;57.90;;;;;;4989719;28;20236;-62
2023/10/08 07:57:56;;;;;;;5.30;2.90;;;18.90;57.90;;;;;;4997651;28;20222;-64
2023/10/08 08:00:30;;;;;;;6.65;2.60;;;18.90;57.90;;;;;;5020257;28;20222;-64
2023/10/08 08:03:10;;;;;;;;;;;;;;;;;;;;;
2023/10/08 08:08:41;;;;;;;4.75;2.90;;;18.90;58.00;;;;;;5012945;28;20210;-64
2023/10/08 08:11:11;;;;;;;4.43;3.00;;;18.90;58.00;;;;;;5015945;28;20229;-64
2023/10/08 08:13:42;;;;;;;6.47;2.60;;;18.90;58.00;;;;;;5074775;28;20191;-65
2023/10/08 08:16:20;;;;;;;5.60;2.60;;;18.90;58.10;;;;;;5075169;28;20253;-64
2023/10/08 08:18:49;;;;;;;3.50;2.78;;;18.90;58.10;;;;;;5074544;28;20218;-61
2023/10/08 08:21:19;;;;;;;4.45;2.78;;;18.90;58.10;;;;;;5074854;28;20218;-65
2023/10/08 08:23:48;;;;;;;5.03;3.08;;;18.90;58.10;;;;;;5074445;28;20190;-64
2023/10/08 08:26:28;;;;;;;2.80;2.40;;;18.90;58.10;;;;;;5074653;28;20215;-65
2023/10/08 08:28:59;;;;;;;4.25;2.75;;;18.90;58.20;;;;;;5074460;28;20602;-63
2023/10/08 08:31:31;;;;;;;4.05;2.90;;;18.90;58.20;;;;;;5074537;28;20384;-62
2023/10/08 08:34:02;;;;;;;4.70;3.20;;;18.90;58.20;;;;;;5074322;28;20183;-65
2023/10/08 08:36:31;;;;;;;5.15;2.80;;;18.90;58.20;;;;;;5074576;28;20215;-64
2023/10/08 08:38:59;;;;;;;4.07;3.03;;;18.90;58.20;;;;;;5074165;28;20215;-65
2023/10/08 08:41:26;;;;;;;5.43;3.42;;;18.90;58.20;;;;;;5074624;28;20301;-64
2023/10/08 08:43:58;;;;;;;6.00;2.88;;;18.90;58.20;;;;;;5074172;28;20187;-64
2023/10/08 08:46:36;;;;;;;3.28;2.45;;;18.90;58.30;;;;;;5074253;28;20727;-65
2023/10/08 08:49:07;;;;;;;3.72;2.53;;;18.90;58.30;;;;;;5074077;28;20191;-63
2023/10/08 08:51:35;;;;;;;3.50;2.53;;;18.90;58.30;;;;;;5074196;28;20223;-64
2023/10/08 08:54:06;;;;;;;3.50;2.47;;;18.90;58.30;;;;;;5074255;28;20278;-64
2023/10/08 08:56:34;;;;;;;4.45;2.83;;;18.90;58.40;;;;;;5073715;28;20214;-63
2023/10/08 08:59:04;;;;;;;3.95;2.83;;;18.90;58.40;;;;;;5074061;28;20276;-64
2023/10/08 09:01:35;;;;;;;3.30;2.60;;;18.90;58.50;;;;;;5074269;28;20305;-64
2023/10/08 09:04:05;;;;;;;4.07;2.70;;;18.90;58.50;;;;;;5073534;28;20212;-64
2023/10/08 09:06:33;;;;;;;7.22;2.70;;;18.90;58.50;;;;;;5074306;28;20218;-64
2023/10/08 09:09:13;;;;;;;4.25;2.90;;;18.90;58.50;;;;;;5074229;28;20201;-64
2023/10/08 09:11:43;;;;;;;4.88;3.25;;;18.90;58.60;;;;;;5073260;28;20210;-64
2023/10/08 09:14:12;;;;;;;5.00;3.22;;;18.90;58.60;;;;;;5073172;28;20194;-63
2023/10/08 09:16:43;;;;;;;3.92;3.05;;;18.90;58.60;;;;;;5073695;28;20272;-62
2023/10/08 09:19:19;;;;;;;6.30;3.17;;;18.90;58.70;;;;;;5072769;28;20249;-64
2023/10/08 09:22:05;;;;;;;4.75;3.10;;;18.90;58.70;;;;;;5073557;28;20297;-65
2023/10/08 09:24:36;;;;;;;3.67;2.90;;;18.90;58.70;;;;;;5073058;28;20191;-63
2023/10/08 09:27:04;;;;;;;4.45;3.03;;;19.00;58.80;;;;;;5072802;28;20841;-63
2023/10/08 09:29:31;;;;;;;5.88;3.60;;;18.90;58.80;;;;;;5073145;28;20206;-65
2023/10/08 09:32:01;;;;;;;4.63;2.80;;;19.00;58.90;;;;;;5073698;28;20226;-64
2023/10/08 09:34:30;;;;;;;7.00;3.00;;;19.00;58.90;;;;;;5073173;28;20187;-65
2023/10/08 09:37:00;;;;;;;4.55;3.10;;;18.90;58.90;;;;;;5073600;28;20217;-64
2023/10/08 09:39:30;;;;;;;5.05;3.30;;;19.00;59.00;;;;;;5072883;28;20696;-65
2023/10/08 09:41:58;;;;;;;3.78;2.65;;;19.00;59.00;;;;;;5072838;28;20219;-63
2023/10/08 09:44:26;;;;;;;5.63;3.17;;;18.90;58.90;;;;;;5072868;28;20187;-65
2023/10/08 09:47:04;;;;;;;4.65;2.95;;;18.90;59.00;;;;;;5073222;28;20226;-65
2023/10/08 09:49:33;;;;;;;5.32;3.17;;;18.90;59.00;;;;;;5072648;28;20595;-64
2023/10/08 09:52:06;;;;;;;4.70;2.97;;;19.00;59.10;;;;;;5072969;28;20219;-63
2023/10/08 09:54:42;;;;;;;4.93;3.15;;;19.00;59.10;;;;;;5073050;28;20198;-64
2023/10/08 09:57:11;;;;;;;4.10;2.70;;;19.00;59.00;;;;;;5072408;28;20191;-64
2023/10/08 09:59:40;;;;;;;5.32;3.15;;;19.00;59.10;;;;;;5072801;28;20214;-64
2023/10/08 10:02:10;;;;;;;5.13;3.30;;;19.00;59.10;;;;;;5072574;28;20653;-65
2023/10/08 10:04:42;;;;;;;7.07;3.47;;;19.00;59.10;;;;;;5072274;28;20191;-63
2023/10/08 10:07:12;;;;;;;4.57;3.00;;;19.00;59.10;;;;;;5072816;28;20217;-63
2023/10/08 10:09:43;;;;;;;4.82;3.17;;;19.00;59.10;;;;;;5072776;28;20191;-63
2023/10/08 10:12:14;;;;;;;4.85;3.00;;;18.90;59.00;;;;;;5072509;28;20187;-64
2023/10/08 10:14:46;;;;;;;4.50;3.10;;;19.00;59.20;;;;;;5072265;28;20187;-64
2023/10/08 10:17:22;;;;;;;6.07;3.05;;;19.00;59.10;;;;;;5072720;28;20190;-64
2023/10/08 10:19:52;;;;;;;4.13;2.67;;;19.00;59.10;;;;;;5072331;28;20214;-65
2023/10/08 10:22:30;;;;;;;5.55;2.67;;;19.00;59.20;;;;;;5072566;28;20183;-63
2023/10/08 10:25:00;;;;;;;3.70;2.60;;;19.00;59.20;;;;;;5072437;28;20183;-64
2023/10/08 10:27:27;;;;;;;4.20;2.75;;;19.00;59.20;;;;;;5071432;28;20230;-63
2023/10/08 10:30:08;;;;;;;7.32;3.15;;;19.00;59.20;;;;;;5072381;28;20206;-64
2023/10/08 10:32:37;;;;;;;4.97;3.10;;;19.00;59.30;;;;;;5072292;28;20190;-64
2023/10/08 10:35:08;;;;;;;4.47;3.13;;;19.00;59.20;;;;;;5072356;28;20214;-64
2023/10/08 10:41:08;;;;;;;3.58;2.90;;;19.00;59.30;;;;;;5036368;28;20233;-63
2023/10/08 10:43:40;;;;;;;4.97;2.70;;;19.00;59.30;;;;;;5072327;28;20191;-64
2023/10/08 10:46:29;;;;;;;4.72;2.85;;;19.00;59.30;;;;;;5072424;28;20215;-64
2023/10/08 10:49:17;;;;;;;3.72;2.65;;;19.00;59.30;;;;;;5072234;28;20668;-63
2023/10/08 10:51:46;;;;;;;4.00;2.70;;;19.10;59.40;;;;;;5071994;28;20307;-63
2023/10/08 10:54:36;;;;;;;5.75;3.22;;;19.10;59.40;;;;;;5072300;28;20187;-64
2023/10/08 10:57:03;;;;;;;5.03;2.75;;;19.00;59.30;;;;;;5071766;28;20718;-65
2023/10/08 10:59:36;;;;;;;4.25;2.55;;;19.10;59.40;;;;;;5072236;28;20254;-64
2023/10/08 11:02:07;;;;;;;4.45;2.58;;;19.10;59.50;;;;;;5072143;28;20222;-64
2023/10/08 11:04:47;;;;;;;3.92;2.50;;;19.10;59.40;;;;;;5071854;28;20194;-65
2023/10/08 11:07:16;;;;;;;4.82;2.92;;;19.10;59.40;;;;;;5072348;28;20197;-65
2023/10/08 11:09:44;;;;;;;3.55;2.70;;;19.10;59.40;;;;;;5071673;28;20598;-64
2023/10/08 11:12:18;;;;;;;5.93;3.10;;;19.10;59.40;;;;;;5071805;28;20278;-64
2023/10/08 11:14:48;;;;;;;4.90;2.40;;;19.10;59.50;;;;;;5071741;28;20202;-65
2023/10/08 11:17:24;;;;;;;3.88;2.55;;;19.00;59.40;;;;;;5071805;28;20214;-64
2023/10/08 11:19:53;;;;;;;3.55;2.75;;;19.10;60.10;;;;;;5072200;28;20226;-63
2023/10/08 11:22:22;;;;;;;3.95;2.63;;;19.10;59.40;;;;;;5071694;28;20187;-64
2023/10/08 11:24:53;;;;;;;3.60;2.55;;;19.10;59.50;;;;;;5071610;28;20274;-63
2023/10/08 11:27:29;;;;;;;4.00;2.85;;;19.10;59.50;;;;;;5071447;28;20625;-65
2023/10/08 11:29:57;;;;;;;4.45;2.58;;;19.10;59.40;;;;;;5071926;28;20194;-64
2023/10/08 11:32:26;;;;;;;4.22;2.83;;;19.10;59.50;;;;;;5071753;28;20199;-64
2023/10/08 11:34:59;;;;;;;5.10;2.63;;;19.10;59.40;;;;;;5071748;28;20191;-65
2023/10/08 11:37:33;;;;;;;4.70;2.90;;;19.10;59.50;;;;;;5072880;28;20202;-65
2023/10/08 11:40:15;;;;;;;5.13;2.80;;;19.10;59.50;;;;;;5075259;28;20416;-65
2023/10/08 11:42:43;;;;;;;4.88;2.95;;;19.10;59.40;;;;;;5075568;28;20273;-63
2023/10/08 11:47:56;;;;;;;4.28;2.80;;;19.10;60.10;;;;;;5074561;28;20195;-64
2023/10/08 11:50:31;;;;;;;3.33;2.40;;;19.10;59.50;;;;;;5075483;28;20226;-64
2023/10/08 11:53:05;;;;;;;6.22;2.85;;;19.10;59.50;;;;;;5075429;28;20197;-63
2023/10/08 11:55:35;;;;;;;3.90;2.70;;;19.10;59.50;;;;;;5075164;28;20214;-64
2023/10/08 11:58:19;;;;;;;;;;;;;;;;;;;;;
2023/10/08 12:00:52;;;;;;;3.50;2.50;;;19.20;59.50;;;;;;5006746;28;20231;-64
2023/10/08 12:03:20;;;;;;;4.13;2.95;;;19.10;59.50;;;;;;5075026;28;20193;-64
2023/10/08 12:05:52;;;;;;;3.38;2.28;;;19.20;59.50;;;;;;5074922;28;20222;-63
2023/10/08 12:08:22;;;;;;;5.43;3.40;;;19.20;59.50;;;;;;5074836;28;20595;-64
2023/10/08 12:10:53;;;;;;;3.85;2.85;;;19.20;59.50;;;;;;5074803;28;20219;-63
2023/10/08 12:13:24;;;;;;;3.67;2.42;;;19.10;59.50;;;;;;5074987;28;20194;-64
2023/10/08 12:15:52;;;;;;;4.75;2.72;;;19.20;59.50;;;;;;5074779;28;20267;-63
2023/10/08 12:18:25;;;;;;;4.32;2.83;;;19.20;59.50;;;;;;5074726;28;20191;-64
2023/10/08 12:20:55;;;;;;;4.30;2.60;;;19.20;59.50;;;;;;5074853;28;20234;-64
2023/10/08 12:23:25;;;;;;;5.28;2.92;;;19.20;59.50;;;;;;5074798;28;20206;-65
2023/10/08 12:25:55;;;;;;;4.03;2.60;;;19.20;59.50;;;;;;5074540;28;20214;-64
2023/10/08 12:28:23;;;;;;;3.70;2.60;;;19.20;59.50;;;;;;5074374;28;20253;-64
2023/10/08 12:30:52;;;;;;;3.78;2.70;;;19.20;59.50;;;;;;5074381;28;20634;-64
2023/10/08 12:33:19;;;;;;;3.63;2.60;;;19.20;59.50;;;;;;5074215;28;20557;-64
2023/10/08 12:35:48;;;;;;;4.20;2.60;;;19.20;59.50;;;;;;5074570;28;20215;-64
2023/10/08 12:38:20;;;;;;;4.38;2.60;;;19.20;59.50;;;;;;5074588;28;20208;-64
2023/10/08 12:40:52;;;;;;;4.38;2.97;;;19.20;59.50;;;;;;5074536;28;20258;-64
2023/10/08 12:43:20;;;;;;;3.33;2.33;;;19.20;59.60;;;;;;5074148;28;20584;-65
2023/10/08 12:45:52;;;;;;;4.85;2.50;;;19.20;59.60;;;;;;5074006;28;20302;-63
2023/10/08 12:48:24;;;;;;;3.78;2.60;;;19.20;60.30;;;;;;5074130;28;20625;-65
2023/10/08 12:50:56;;;;;;;4.80;2.70;;;19.30;59.70;;;;;;5074536;28;20223;-64
2023/10/08 12:53:33;;;;;;;3.70;2.53;;;19.30;59.80;;;;;;5073701;28;20197;-63
2023/10/08 12:56:05;;;;;;;3.88;2.40;;;19.20;59.60;;;;;;5074276;28;20383;-65
2023/10/08 12:58:38;;;;;;;6.53;3.20;;;19.20;59.80;;;;;;5073889;28;20243;-64
2023/10/08 13:01:09;;;;;;;3.30;2.40;;;19.20;59.90;;;;;;5073906;28;20241;-64
2023/10/08 13:03:41;;;;;;;5.30;2.50;;;19.20;59.80;;;;;;5073759;28;20665;-63
2023/10/08 13:06:11;;;;;;;3.65;2.53;;;19.30;60.10;;;;;;5074264;28;20295;-64
2023/10/08 13:08:42;;;;;;;3.90;2.40;;;19.30;60.00;;;;;;5073459;28;20187;-64
2023/10/08 13:11:11;;;;;;;4.00;2.67;;;19.30;59.90;;;;;;5073839;28;20218;-65
2023/10/08 13:14:06;;;;;;;3.92;2.50;;;19.30;59.90;;;;;;5073894;28;20218;-65
2023/10/08 13:16:37;;;;;;;3.30;2.42;;;19.20;60.10;;;;;;5073781;28;20223;-64
2023/10/08 13:19:08;;;;;;;5.15;3.08;;;19.30;60.20;;;;;;5073735;28;20198;-64
2023/10/08 13:21:36;;;;;;;5.80;2.88;;;19.30;60.20;;;;;;5073915;28;20219;-63
2023/10/08 13:24:08;;;;;;;4.13;2.58;;;19.30;60.10;;;;;;5073455;28;20214;-65
2023/10/08 13:26:37;;;;;;;6.57;3.00;;;19.30;60.20;;;;;;5073386;28;20673;-65
2023/10/08 13:29:05;;;;;;;4.65;2.80;;;19.30;60.30;;;;;;5073803;28;20286;-64
2023/10/08 13:31:36;;;;;;;4.85;2.85;;;19.30;60.40;;;;;;5073536;28;20215;-65
2023/10/08 13:34:08;;;;;;;4.57;2.92;;;19.30;60.60;;;;;;5073415;28;20214;-64
2023/10/08 13:36:37;;;;;;;4.28;2.70;;;19.30;60.60;;;;;;5073306;28;20627;-64
2023/10/08 13:39:09;;;;;;;4.18;2.70;;;19.30;60.50;;;;;;5073138;28;20187;-64
2023/10/08 13:41:38;;;;;;;4.35;3.05;;;19.30;60.50;;;;;;5073390;28;20223;-64
2023/10/08 13:44:06;;;;;;;5.05;2.75;;;19.30;60.50;;;;;;5072948;28;20183;-64
2023/10/08 13:46:36;;;;;;;4.32;2.97;;;19.30;60.70;;;;;;5072787;28;20696;-64
2023/10/08 13:49:05;;;;;;;3.78;2.53;;;19.30;60.70;;;;;;5072969;28;20684;-63
2023/10/08 13:51:35;;;;;;;5.32;3.00;;;19.30;60.70;;;;;;5073292;28;20692;-62
2023/10/08 13:54:06;;;;;;;3.50;2.83;;;19.20;60.60;;;;;;5072858;28;20191;-65
2023/10/08 13:56:48;;;;;;;5.88;3.42;;;19.30;60.80;;;;;;5073052;28;20279;-64
2023/10/08 13:59:16;;;;;;;5.90;2.72;;;19.30;61.00;;;;;;5072629;28;20191;-64
2023/10/08 14:01:46;;;;;;;6.75;3.20;;;19.30;60.90;;;;;;5071990;28;20214;-64
2023/10/08 14:04:17;;;;;;;5.53;3.35;;;19.30;60.90;;;;;;5072885;28;20193;-63
2023/10/08 14:06:48;;;;;;;3.55;2.72;;;19.30;61.00;;;;;;5072613;28;20214;-64
2023/10/08 14:09:20;;;;;;;4.85;2.90;;;19.30;61.00;;;;;;5072616;28;20272;-63